sensor_id;sensor_type;location;lat;lon;timestamp;pressure;altitude;pressure_sealevel;temperature;humidity
76940;BME280;65885;55.848;35.916;2022-12-29T00:02:24;99165.34;;;-0.27;69.73
76940;BME280;65885;55.848;35.916;2022-12-29T00:04:51;99162.78;;;-0.21;69.03
76940;BME280;65885;55.848;35.916;2022-12-29T00:07:18;99164.47;;;-0.18;69.21
76940;BME280;65885;55.848;35.916;2022-12-29T00:09:46;99161.88;;;-0.17;69.17
76940;BME280;65885;55.848;35.916;2022-12-29T00:12:13;99165.34;;;-0.15;68.75
76940;BME280;65885;55.848;35.916;2022-12-29T00:14:41;99168.75;;;-0.14;68.58
76940;BME280;65885;55.848;35.916;2022-12-29T00:17:26;99179.91;;;-0.11;69.09
76940;BME280;65885;55.848;35.916;2022-12-29T00:19:56;99183.34;;;-0.12;68.80
76940;BME280;65885;55.848;35.916;2022-12-29T00:22:42;99185.06;;;-0.15;69.10
76940;BME280;65885;55.848;35.916;2022-12-29T00:25:27;99191.09;;;-0.16;68.86
76940;BME280;65885;55.848;35.916;2022-12-29T00:28:11;99193.66;;;-0.16;69.01
76940;BME280;65885;55.848;35.916;2022-12-29T00:30:59;99203.97;;;-0.16;69.05
76940;BME280;65885;55.848;35.916;2022-12-29T00:33:45;99205.69;;;-0.17;69.33
76940;BME280;65885;55.848;35.916;2022-12-29T00:36:32;99199.69;;;-0.13;69.71
76940;BME280;65885;55.848;35.916;2022-12-29T00:39:03;99192.78;;;-0.08;69.82
76940;BME280;65885;55.848;35.916;2022-12-29T00:41:51;99189.34;;;0.01;69.78
76940;BME280;65885;55.848;35.916;2022-12-29T00:44:36;99188.44;;;0.10;69.62
76940;BME280;65885;55.848;35.916;2022-12-29T00:47:03;99200.44;;;0.17;69.46
76940;BME280;65885;55.848;35.916;2022-12-29T00:49:32;99191.81;;;0.22;69.06
76940;BME280;65885;55.848;35.916;2022-12-29T00:52:01;99192.66;;;0.29;68.63
76940;BME280;65885;55.848;35.916;2022-12-29T00:54:31;99191.78;;;0.33;68.38
76940;BME280;65885;55.848;35.916;2022-12-29T00:57:00;99196.06;;;0.34;68.31
76940;BME280;65885;55.848;35.916;2022-12-29T00:59:27;99194.38;;;0.32;68.65
76940;BME280;65885;55.848;35.916;2022-12-29T01:01:55;99203.84;;;0.26;68.15
76940;BME280;65885;55.848;35.916;2022-12-29T01:04:24;99201.28;;;0.22;68.33
76940;BME280;65885;55.848;35.916;2022-12-29T01:06:53;99201.31;;;0.17;68.67
76940;BME280;65885;55.848;35.916;2022-12-29T01:09:20;99201.31;;;0.13;69.07
76940;BME280;65885;55.848;35.916;2022-12-29T01:12:07;99192.75;;;0.08;69.08
76940;BME280;65885;55.848;35.916;2022-12-29T01:14:34;99197.03;;;0.06;69.24
76940;BME280;65885;55.848;35.916;2022-12-29T01:17:02;99207.38;;;0.03;68.85
76940;BME280;65885;55.848;35.916;2022-12-29T01:19:30;99199.63;;;-0.01;69.61
76940;BME280;65885;55.848;35.916;2022-12-29T01:21:59;99208.22;;;-0.02;69.44
76940;BME280;65885;55.848;35.916;2022-12-29T01:24:26;99207.38;;;-0.04;69.76
76940;BME280;65885;55.848;35.916;2022-12-29T01:26:54;99200.50;;;-0.02;69.26
76940;BME280;65885;55.848;35.916;2022-12-29T01:29:21;99194.47;;;0.03;69.33
76940;BME280;65885;55.848;35.916;2022-12-29T01:31:48;99196.19;;;0.10;69.98
76940;BME280;65885;55.848;35.916;2022-12-29T01:34:16;99197.88;;;0.17;69.65
76940;BME280;65885;55.848;35.916;2022-12-29T01:36:44;99192.69;;;0.23;69.44
76940;BME280;65885;55.848;35.916;2022-12-29T01:39:12;99194.34;;;0.30;69.12
76940;BME280;65885;55.848;35.916;2022-12-29T01:41:41;99188.31;;;0.36;69.27
76940;BME280;65885;55.848;35.916;2022-12-29T01:47:27;99196.88;;;0.44;68.54
76940;BME280;65885;55.848;35.916;2022-12-29T01:50:00;99197.75;;;0.41;68.81
76940;BME280;65885;55.848;35.916;2022-12-29T01:52:32;99205.53;;;0.38;68.39
76940;BME280;65885;55.848;35.916;2022-12-29T01:55:03;99195.22;;;0.32;68.93
76940;BME280;65885;55.848;35.916;2022-12-29T01:57:36;99199.53;;;0.28;69.10
76940;BME280;65885;55.848;35.916;2022-12-29T02:00:07;99200.41;;;0.24;68.95
76940;BME280;65885;55.848;35.916;2022-12-29T02:02:35;99198.72;;;0.19;68.86
76940;BME280;65885;55.848;35.916;2022-12-29T02:05:07;99200.44;;;0.17;68.74
76940;BME280;65885;55.848;35.916;2022-12-29T02:07:37;99196.16;;;0.13;69.12
76940;BME280;65885;55.848;35.916;2022-12-29T02:10:07;99204.75;;;0.12;69.39
76940;BME280;65885;55.848;35.916;2022-12-29T02:12:35;99197.03;;;0.10;69.07
76940;BME280;65885;55.848;35.916;2022-12-29T02:15:04;99197.88;;;0.11;69.33
76940;BME280;65885;55.848;35.916;2022-12-29T02:17:45;99196.16;;;0.13;69.11
76940;BME280;65885;55.848;35.916;2022-12-29T02:20:56;99205.59;;;0.17;69.29
76940;BME280;65885;55.848;35.916;2022-12-29T02:23:58;99204.72;;;0.24;68.99
76940;BME280;65885;55.848;35.916;2022-12-29T02:26:52;99200.38;;;0.32;68.91
76940;BME280;65885;55.848;35.916;2022-12-29T02:32:42;99198.59;;;0.46;69.46
76940;BME280;65885;55.848;35.916;2022-12-29T02:35:20;99198.56;;;0.52;69.27
76940;BME280;65885;55.848;35.916;2022-12-29T02:37:58;99193.41;;;0.55;68.87
76940;BME280;65885;55.848;35.916;2022-12-29T02:40:33;99193.41;;;0.55;68.52
76940;BME280;65885;55.848;35.916;2022-12-29T02:43:11;99202.00;;;0.51;68.23
76940;BME280;65885;55.848;35.916;2022-12-29T02:45:47;99205.47;;;0.47;68.23
76940;BME280;65885;55.848;35.916;2022-12-29T02:48:22;99212.34;;;0.44;68.23
76940;BME280;65885;55.848;35.916;2022-12-29T02:50:56;99209.78;;;0.38;68.37
76940;BME280;65885;55.848;35.916;2022-12-29T02:53:26;99221.00;;;0.34;68.65
76940;BME280;65885;55.848;35.916;2022-12-29T02:56:07;99215.84;;;0.29;69.08
76940;BME280;65885;55.848;35.916;2022-12-29T02:58:34;99215.88;;;0.24;68.39
76940;BME280;65885;55.848;35.916;2022-12-29T03:01:11;99216.75;;;0.20;68.29
76940;BME280;65885;55.848;35.916;2022-12-29T03:03:53;99227.94;;;0.15;69.00
76940;BME280;65885;55.848;35.916;2022-12-29T03:06:33;99232.28;;;0.10;68.87
76940;BME280;65885;55.848;35.916;2022-12-29T03:09:12;99230.56;;;0.04;69.06
76940;BME280;65885;55.848;35.916;2022-12-29T03:11:50;99234.00;;;0.02;69.14
76940;BME280;65885;55.848;35.916;2022-12-29T03:14:44;99221.13;;;0.03;69.03
76940;BME280;65885;55.848;35.916;2022-12-29T03:17:40;99226.25;;;0.09;68.95
76940;BME280;65885;55.848;35.916;2022-12-29T03:20:16;99229.69;;;0.16;69.05
76940;BME280;65885;55.848;35.916;2022-12-29T03:22:47;99225.34;;;0.21;69.42
76940;BME280;65885;55.848;35.916;2022-12-29T03:25:19;99226.19;;;0.26;68.56
76940;BME280;65885;55.848;35.916;2022-12-29T03:27:50;99227.91;;;0.32;68.95
76940;BME280;65885;55.848;35.916;2022-12-29T03:30:18;99222.72;;;0.36;68.63
76940;BME280;65885;55.848;35.916;2022-12-29T03:32:49;99225.28;;;0.36;68.57
76940;BME280;65885;55.848;35.916;2022-12-29T03:35:21;99227.88;;;0.35;68.54
76940;BME280;65885;55.848;35.916;2022-12-29T03:37:57;99224.47;;;0.31;68.31
76940;BME280;65885;55.848;35.916;2022-12-29T03:40:26;99218.47;;;0.26;68.94
76940;BME280;65885;55.848;35.916;2022-12-29T03:42:55;99226.22;;;0.23;68.58
76940;BME280;65885;55.848;35.916;2022-12-29T03:45:23;99227.06;;;0.19;68.67
76940;BME280;65885;55.848;35.916;2022-12-29T03:47:50;99227.97;;;0.16;69.26
76940;BME280;65885;55.848;35.916;2022-12-29T03:50:19;99216.78;;;0.13;69.37
76940;BME280;65885;55.848;35.916;2022-12-29T03:52:47;99216.81;;;0.10;69.53
76940;BME280;65885;55.848;35.916;2022-12-29T03:55:14;99217.66;;;0.07;69.40
76940;BME280;65885;55.848;35.916;2022-12-29T03:57:42;99223.69;;;0.05;69.68
76940;BME280;65885;55.848;35.916;2022-12-29T04:00:10;99220.28;;;0.01;69.26
76940;BME280;65885;55.848;35.916;2022-12-29T04:02:38;99234.03;;;0.00;69.93
76940;BME280;65885;55.848;35.916;2022-12-29T04:05:06;99234.00;;;0.02;69.45
76940;BME280;65885;55.848;35.916;2022-12-29T04:07:35;99230.53;;;0.06;69.42
76940;BME280;65885;55.848;35.916;2022-12-29T04:10:02;99221.94;;;0.13;69.38
76940;BME280;65885;55.848;35.916;2022-12-29T04:12:30;99225.34;;;0.21;69.72
76940;BME280;65885;55.848;35.916;2022-12-29T04:14:57;99232.19;;;0.28;69.30
76940;BME280;65885;55.848;35.916;2022-12-29T04:17:24;99230.44;;;0.36;69.96
76940;BME280;65885;55.848;35.916;2022-12-29T04:19:52;99226.13;;;0.41;69.42
76940;BME280;65885;55.848;35.916;2022-12-29T04:22:40;99234.69;;;0.49;69.58
76940;BME280;65885;55.848;35.916;2022-12-29T04:25:08;99221.78;;;0.52;69.31
76940;BME280;65885;55.848;35.916;2022-12-29T04:27:36;99225.22;;;0.54;69.20
76940;BME280;65885;55.848;35.916;2022-12-29T04:30:04;99227.81;;;0.54;68.90
76940;BME280;65885;55.848;35.916;2022-12-29T04:32:31;99226.94;;;0.52;68.58
76940;BME280;65885;55.848;35.916;2022-12-29T04:35:00;99223.53;;;0.49;68.75
76940;BME280;65885;55.848;35.916;2022-12-29T04:37:28;99229.53;;;0.45;68.32
76940;BME280;65885;55.848;35.916;2022-12-29T04:39:57;99233.03;;;0.41;68.23
76940;BME280;65885;55.848;35.916;2022-12-29T04:42:26;99239.03;;;0.37;68.87
76940;BME280;65885;55.848;35.916;2022-12-29T04:44:54;99233.91;;;0.32;68.03
76940;BME280;65885;55.848;35.916;2022-12-29T04:47:21;99235.63;;;0.28;68.81
76940;BME280;65885;55.848;35.916;2022-12-29T04:49:48;99230.50;;;0.24;69.06
76940;BME280;65885;55.848;35.916;2022-12-29T04:52:16;99237.38;;;0.22;69.29
76940;BME280;65885;55.848;35.916;2022-12-29T04:54:43;99225.38;;;0.18;69.11
76940;BME280;65885;55.848;35.916;2022-12-29T04:57:12;99234.81;;;0.13;69.13
76940;BME280;65885;55.848;35.916;2022-12-29T04:59:39;99243.41;;;0.13;69.70
76940;BME280;65885;55.848;35.916;2022-12-29T05:02:07;99246.00;;;0.18;69.51
76940;BME280;65885;55.848;35.916;2022-12-29T05:04:34;99247.69;;;0.25;70.10
76940;BME280;65885;55.848;35.916;2022-12-29T05:07:01;99249.38;;;0.32;69.87
76940;BME280;65885;55.848;35.916;2022-12-29T05:09:29;99240.75;;;0.39;69.76
76940;BME280;65885;55.848;35.916;2022-12-29T05:11:56;99242.47;;;0.46;69.15
76940;BME280;65885;55.848;35.916;2022-12-29T05:14:25;99237.25;;;0.52;69.22
76940;BME280;65885;55.848;35.916;2022-12-29T05:16:53;99242.38;;;0.59;68.80
76940;BME280;65885;55.848;35.916;2022-12-29T05:19:20;99251.00;;;0.61;68.77
76940;BME280;65885;55.848;35.916;2022-12-29T05:21:47;99244.94;;;0.60;68.75
76940;BME280;65885;55.848;35.916;2022-12-29T05:24:15;99240.69;;;0.58;68.71
76940;BME280;65885;55.848;35.916;2022-12-29T05:26:43;99238.13;;;0.54;68.49
76940;BME280;65885;55.848;35.916;2022-12-29T05:29:10;99238.97;;;0.50;68.70
76940;BME280;65885;55.848;35.916;2022-12-29T05:31:39;99243.28;;;0.45;68.55
76940;BME280;65885;55.848;35.916;2022-12-29T05:34:06;99245.91;;;0.42;68.94
76940;BME280;65885;55.848;35.916;2022-12-29T05:36:33;99245.94;;;0.39;69.02
76940;BME280;65885;55.848;35.916;2022-12-29T05:39:01;99250.22;;;0.36;69.08
76940;BME280;65885;55.848;35.916;2022-12-29T05:41:28;99249.38;;;0.32;68.33
76940;BME280;65885;55.848;35.916;2022-12-29T05:43:55;99248.53;;;0.25;69.05
76940;BME280;65885;55.848;35.916;2022-12-29T05:46:23;99252.00;;;0.18;68.58
76940;BME280;65885;55.848;35.916;2022-12-29T05:48:53;99252.88;;;0.16;68.79
76940;BME280;65885;55.848;35.916;2022-12-29T05:51:20;99246.00;;;0.18;69.50
76940;BME280;65885;55.848;35.916;2022-12-29T05:53:48;99245.97;;;0.21;69.97
76940;BME280;65885;55.848;35.916;2022-12-29T05:56:15;99242.50;;;0.28;69.49
76940;BME280;65885;55.848;35.916;2022-12-29T05:58:43;99250.22;;;0.34;69.79
76940;BME280;65885;55.848;35.916;2022-12-29T06:01:10;99247.63;;;0.40;69.24
76940;BME280;65885;55.848;35.916;2022-12-29T06:03:37;99251.06;;;0.47;69.02
76940;BME280;65885;55.848;35.916;2022-12-29T06:06:06;99251.88;;;0.53;69.27
76940;BME280;65885;55.848;35.916;2022-12-29T06:08:34;99257.84;;;0.60;68.78
76940;BME280;65885;55.848;35.916;2022-12-29T06:11:01;99258.72;;;0.64;68.84
76940;BME280;65885;55.848;35.916;2022-12-29T06:13:28;99263.84;;;0.65;69.35
76940;BME280;65885;55.848;35.916;2022-12-29T06:15:56;99264.75;;;0.63;68.51
76940;BME280;65885;55.848;35.916;2022-12-29T06:18:23;99263.88;;;0.59;68.98
76940;BME280;65885;55.848;35.916;2022-12-29T06:20:50;99260.47;;;0.54;69.38
76940;BME280;65885;55.848;35.916;2022-12-29T06:23:19;99258.78;;;0.50;68.77
76940;BME280;65885;55.848;35.916;2022-12-29T06:25:47;99263.94;;;0.45;69.40
76940;BME280;65885;55.848;35.916;2022-12-29T06:28:15;99265.66;;;0.43;69.72
76940;BME280;65885;55.848;35.916;2022-12-29T06:30:44;99269.13;;;0.47;69.91
76940;BME280;65885;55.848;35.916;2022-12-29T06:33:13;99267.38;;;0.50;69.37
76940;BME280;65885;55.848;35.916;2022-12-29T06:35:42;99268.22;;;0.55;70.14
76940;BME280;65885;55.848;35.916;2022-12-29T06:38:09;99272.50;;;0.61;69.83
76940;BME280;65885;55.848;35.916;2022-12-29T06:40:38;99274.19;;;0.65;70.07
76940;BME280;65885;55.848;35.916;2022-12-29T06:43:06;99269.88;;;0.69;69.51
76940;BME280;65885;55.848;35.916;2022-12-29T06:45:34;99272.44;;;0.72;70.26
76940;BME280;65885;55.848;35.916;2022-12-29T06:48:01;99275.84;;;0.78;70.09
76940;BME280;65885;55.848;35.916;2022-12-29T06:50:29;99271.53;;;0.83;69.46
76940;BME280;65885;55.848;35.916;2022-12-29T06:52:56;99267.16;;;0.90;69.53
76940;BME280;65885;55.848;35.916;2022-12-29T06:55:23;99265.41;;;0.97;69.81
76940;BME280;65885;55.848;35.916;2022-12-29T06:57:54;99268.81;;;1.03;69.98
76940;BME280;65885;55.848;35.916;2022-12-29T07:00:21;99263.63;;;1.09;68.97
76940;BME280;65885;55.848;35.916;2022-12-29T07:02:49;99261.88;;;1.15;69.11
76940;BME280;65885;55.848;35.916;2022-12-29T07:05:16;99265.28;;;1.18;69.19
76940;BME280;65885;55.848;35.916;2022-12-29T07:07:43;99264.44;;;1.18;68.89
76940;BME280;65885;55.848;35.916;2022-12-29T07:10:11;99267.03;;;1.15;68.83
76940;BME280;65885;55.848;35.916;2022-12-29T07:12:39;99275.66;;;1.12;68.90
76940;BME280;65885;55.848;35.916;2022-12-29T07:15:09;99259.31;;;1.10;68.30
76940;BME280;65885;55.848;35.916;2022-12-29T07:17:36;99265.34;;;1.09;69.25
76940;BME280;65885;55.848;35.916;2022-12-29T07:20:04;99260.19;;;1.09;68.68
76940;BME280;65885;55.848;35.916;2022-12-29T07:22:32;99267.94;;;1.07;69.03
76940;BME280;65885;55.848;35.916;2022-12-29T07:24:59;99268.81;;;1.05;68.54
76940;BME280;65885;55.848;35.916;2022-12-29T07:27:28;99269.69;;;1.04;68.61
76940;BME280;65885;55.848;35.916;2022-12-29T07:29:56;99267.09;;;1.02;69.21
76940;BME280;65885;55.848;35.916;2022-12-29T07:32:25;99271.44;;;1.00;69.39
76940;BME280;65885;55.848;35.916;2022-12-29T07:34:52;99267.13;;;0.99;68.70
76940;BME280;65885;55.848;35.916;2022-12-29T07:37:19;99270.59;;;0.98;69.05
76940;BME280;65885;55.848;35.916;2022-12-29T07:39:47;99266.28;;;0.99;68.72
76940;BME280;65885;55.848;35.916;2022-12-29T07:42:14;99264.50;;;1.05;69.53
76940;BME280;65885;55.848;35.916;2022-12-29T07:44:42;99277.38;;;1.15;69.45
76940;BME280;65885;55.848;35.916;2022-12-29T07:47:09;99275.59;;;1.23;69.79
76940;BME280;65885;55.848;35.916;2022-12-29T07:49:38;99271.22;;;1.32;69.90
76940;BME280;65885;55.848;35.916;2022-12-29T07:52:08;99272.00;;;1.42;70.26
76940;BME280;65885;55.848;35.916;2022-12-29T07:54:35;99277.97;;;1.50;69.35
76940;BME280;65885;55.848;35.916;2022-12-29T07:57:03;99272.75;;;1.56;69.29
76940;BME280;65885;55.848;35.916;2022-12-29T07:59:30;99274.47;;;1.59;69.90
76940;BME280;65885;55.848;35.916;2022-12-29T08:01:57;99273.59;;;1.57;69.15
76940;BME280;65885;55.848;35.916;2022-12-29T08:04:25;99276.22;;;1.55;69.61
76940;BME280;65885;55.848;35.916;2022-12-29T08:06:53;99280.53;;;1.53;69.09
76940;BME280;65885;55.848;35.916;2022-12-29T08:09:21;99279.72;;;1.51;69.69
76940;BME280;65885;55.848;35.916;2022-12-29T08:11:48;99277.97;;;1.49;69.67
76940;BME280;65885;55.848;35.916;2022-12-29T08:14:16;99278.88;;;1.46;70.09
76940;BME280;65885;55.848;35.916;2022-12-29T08:16:43;99272.84;;;1.46;69.15
76940;BME280;65885;55.848;35.916;2022-12-29T08:19:11;99274.56;;;1.45;70.19
76940;BME280;65885;55.848;35.916;2022-12-29T08:21:38;99267.69;;;1.46;69.85
76940;BME280;65885;55.848;35.916;2022-12-29T08:24:08;99276.28;;;1.46;70.20
76940;BME280;65885;55.848;35.916;2022-12-29T08:26:35;99273.69;;;1.48;69.83
76940;BME280;65885;55.848;35.916;2022-12-29T08:29:02;99270.22;;;1.49;69.74
76940;BME280;65885;55.848;35.916;2022-12-29T08:31:30;99281.41;;;1.51;69.67
76940;BME280;65885;55.848;35.916;2022-12-29T08:33:57;99281.34;;;1.58;70.20
76940;BME280;65885;55.848;35.916;2022-12-29T08:36:25;99277.84;;;1.67;70.25
76940;BME280;65885;55.848;35.916;2022-12-29T08:38:53;99283.75;;;1.80;70.24
76940;BME280;65885;55.848;35.916;2022-12-29T08:41:22;99278.50;;;1.92;70.67
76940;BME280;65885;55.848;35.916;2022-12-29T08:43:49;99281.81;;;2.05;70.82
76940;BME280;65885;55.848;35.916;2022-12-29T08:46:17;99281.69;;;2.17;70.13
76940;BME280;65885;55.848;35.916;2022-12-29T08:48:45;99281.59;;;2.28;70.34
76940;BME280;65885;55.848;35.916;2022-12-29T08:51:12;99271.16;;;2.35;70.20
76940;BME280;65885;55.848;35.916;2022-12-29T08:53:39;99265.88;;;2.41;69.56
76940;BME280;65885;55.848;35.916;2022-12-29T08:56:08;99269.34;;;2.42;69.44
76940;BME280;65885;55.848;35.916;2022-12-29T08:58:38;99265.03;;;2.41;69.48
76940;BME280;65885;55.848;35.916;2022-12-29T09:01:06;99271.09;;;2.40;69.41
76940;BME280;65885;55.848;35.916;2022-12-29T09:03:33;99273.69;;;2.38;69.76
76940;BME280;65885;55.848;35.916;2022-12-29T09:06:01;99269.41;;;2.37;69.06
76940;BME280;65885;55.848;35.916;2022-12-29T09:08:28;99279.75;;;2.37;69.99
76940;BME280;65885;55.848;35.916;2022-12-29T09:10:55;99278.06;;;2.35;69.44
76940;BME280;65885;55.848;35.916;2022-12-29T09:13:32;99276.31;;;2.35;69.37
76940;BME280;65885;55.848;35.916;2022-12-29T09:16:01;99286.66;;;2.37;69.29
76940;BME280;65885;55.848;35.916;2022-12-29T09:18:29;99278.03;;;2.36;69.28
76940;BME280;65885;55.848;35.916;2022-12-29T09:20:57;99273.69;;;2.38;69.49
76940;BME280;65885;55.848;35.916;2022-12-29T09:23:24;99270.22;;;2.39;69.52
76940;BME280;65885;55.848;35.916;2022-12-29T09:25:52;99272.78;;;2.44;69.27
76940;BME280;65885;55.848;35.916;2022-12-29T09:28:20;99270.97;;;2.49;69.06
76940;BME280;65885;55.848;35.916;2022-12-29T09:30:48;99265.72;;;2.55;69.09
76940;BME280;65885;55.848;35.916;2022-12-29T09:33:17;99270.84;;;2.61;69.06
76940;BME280;65885;55.848;35.916;2022-12-29T09:35:50;99264.72;;;2.68;68.88
76940;BME280;65885;55.848;35.916;2022-12-29T09:38:18;99268.06;;;2.76;68.59
76940;BME280;65885;55.848;35.916;2022-12-29T09:40:50;99273.19;;;2.79;68.46
76940;BME280;65885;55.848;35.916;2022-12-29T09:43:38;99271.47;;;2.78;68.39
76940;BME280;65885;55.848;35.916;2022-12-29T09:46:18;99272.44;;;2.73;67.74
76940;BME280;65885;55.848;35.916;2022-12-29T09:48:55;99267.28;;;2.68;67.57
76940;BME280;65885;55.848;35.916;2022-12-29T09:51:25;99261.31;;;2.63;67.94
76940;BME280;65885;55.848;35.916;2022-12-29T09:53:57;99267.41;;;2.59;68.55
76940;BME280;65885;55.848;35.916;2022-12-29T09:56:26;99261.47;;;2.51;67.82
76940;BME280;65885;55.848;35.916;2022-12-29T09:58:58;99260.66;;;2.46;67.87
76940;BME280;65885;55.848;35.916;2022-12-29T10:01:31;99262.41;;;2.44;68.43
76940;BME280;65885;55.848;35.916;2022-12-29T10:04:02;99263.28;;;2.44;68.32
76940;BME280;65885;55.848;35.916;2022-12-29T10:06:36;99258.97;;;2.43;69.00
76940;BME280;65885;55.848;35.916;2022-12-29T10:09:13;99262.41;;;2.44;69.55
76940;BME280;65885;55.848;35.916;2022-12-29T10:11:58;99258.97;;;2.43;69.44
76940;BME280;65885;55.848;35.916;2022-12-29T10:14:45;99259.84;;;2.42;69.40
76940;BME280;65885;55.848;35.916;2022-12-29T10:17:24;99263.28;;;2.44;69.10
76940;BME280;65885;55.848;35.916;2022-12-29T10:20:07;99264.09;;;2.49;69.46
76940;BME280;65885;55.848;35.916;2022-12-29T10:22:49;99257.94;;;2.57;69.40
76940;BME280;65885;55.848;35.916;2022-12-29T10:25:25;99261.31;;;2.65;69.44
76940;BME280;65885;55.848;35.916;2022-12-29T10:27:58;99262.91;;;2.72;69.29
76940;BME280;65885;55.848;35.916;2022-12-29T10:30:27;99262.91;;;2.75;68.88
76940;BME280;65885;55.848;35.916;2022-12-29T10:32:58;99256.81;;;2.77;68.49
76940;BME280;65885;55.848;35.916;2022-12-29T10:35:33;99246.41;;;2.82;68.21
76940;BME280;65885;55.848;35.916;2022-12-29T10:38:12;99246.34;;;2.85;68.61
76940;BME280;65885;55.848;35.916;2022-12-29T10:40:45;99238.59;;;2.85;68.59
76940;BME280;65885;55.848;35.916;2022-12-29T10:43:22;99241.22;;;2.82;68.09
76940;BME280;65885;55.848;35.916;2022-12-29T10:45:54;99241.22;;;2.82;68.50
76940;BME280;65885;55.848;35.916;2022-12-29T10:48:26;99249.88;;;2.79;68.12
76940;BME280;65885;55.848;35.916;2022-12-29T10:50:58;99248.16;;;2.80;68.78
76940;BME280;65885;55.848;35.916;2022-12-29T10:53:27;99245.53;;;2.83;68.77
76940;BME280;65885;55.848;35.916;2022-12-29T10:55:56;99237.78;;;2.82;69.03
76940;BME280;65885;55.848;35.916;2022-12-29T10:58:26;99237.81;;;2.80;68.32
76940;BME280;65885;55.848;35.916;2022-12-29T11:00:55;99236.06;;;2.79;68.40
76940;BME280;65885;55.848;35.916;2022-12-29T11:03:57;99237.81;;;2.80;68.41
76940;BME280;65885;55.848;35.916;2022-12-29T11:06:28;99242.09;;;2.79;68.79
76940;BME280;65885;55.848;35.916;2022-12-29T11:08:58;99236.09;;;2.77;69.29
76940;BME280;65885;55.848;35.916;2022-12-29T11:11:33;99233.53;;;2.76;69.00
76940;BME280;65885;55.848;35.916;2022-12-29T11:14:07;99239.53;;;2.78;69.28
76940;BME280;65885;55.848;35.916;2022-12-29T11:16:38;99238.63;;;2.82;69.25
76940;BME280;65885;55.848;35.916;2022-12-29T11:19:19;99236.81;;;2.89;69.45
76940;BME280;65885;55.848;35.916;2022-12-29T11:21:49;99239.34;;;2.93;69.18
76940;BME280;65885;55.848;35.916;2022-12-29T11:24:22;99231.50;;;2.98;69.06
76940;BME280;65885;55.848;35.916;2022-12-29T11:26:51;99228.88;;;3.01;69.07
76940;BME280;65885;55.848;35.916;2022-12-29T11:29:24;99218.44;;;3.05;68.54
76940;BME280;65885;55.848;35.916;2022-12-29T11:31:54;99222.69;;;3.11;68.82
76940;BME280;65885;55.848;35.916;2022-12-29T11:34:25;99227.88;;;3.11;68.56
76940;BME280;65885;55.848;35.916;2022-12-29T11:36:59;99222.72;;;3.08;68.28
76940;BME280;65885;55.848;35.916;2022-12-29T11:39:31;99222.78;;;3.02;68.45
76940;BME280;65885;55.848;35.916;2022-12-29T11:41:59;99226.34;;;2.96;68.47
76940;BME280;65885;55.848;35.916;2022-12-29T11:44:34;99226.41;;;2.92;68.35
76940;BME280;65885;55.848;35.916;2022-12-29T11:47:03;99218.72;;;2.86;68.55
76940;BME280;65885;55.848;35.916;2022-12-29T11:49:31;99218.81;;;2.79;68.79
76940;BME280;65885;55.848;35.916;2022-12-29T11:52:00;99216.28;;;2.75;68.81
76940;BME280;65885;55.848;35.916;2022-12-29T11:54:31;99216.38;;;2.69;69.38
76940;BME280;65885;55.848;35.916;2022-12-29T11:57:09;99212.13;;;2.63;69.08
76940;BME280;65885;55.848;35.916;2022-12-29T11:59:42;99225.09;;;2.62;69.64
76940;BME280;65885;55.848;35.916;2022-12-29T12:02:31;99208.72;;;2.60;69.55
76940;BME280;65885;55.848;35.916;2022-12-29T12:05:08;99220.81;;;2.59;69.62
76940;BME280;65885;55.848;35.916;2022-12-29T12:07:47;99223.41;;;2.59;70.01
76940;BME280;65885;55.848;35.916;2022-12-29T12:10:23;99219.94;;;2.60;70.13
76940;BME280;65885;55.848;35.916;2022-12-29T12:12:56;99221.63;;;2.63;69.83
76940;BME280;65885;55.848;35.916;2022-12-29T12:15:30;99219.88;;;2.66;69.69
76940;BME280;65885;55.848;35.916;2022-12-29T12:18:07;99212.03;;;2.69;69.56
76940;BME280;65885;55.848;35.916;2022-12-29T12:20:44;99214.56;;;2.75;69.71
76940;BME280;65885;55.848;35.916;2022-12-29T12:23:35;99209.31;;;2.80;68.99
76940;BME280;65885;55.848;35.916;2022-12-29T12:26:10;99215.31;;;2.84;68.82
76940;BME280;65885;55.848;35.916;2022-12-29T12:28:45;99209.25;;;2.85;68.83
76940;BME280;65885;55.848;35.916;2022-12-29T12:31:19;99205.00;;;2.79;68.72
76940;BME280;65885;55.848;35.916;2022-12-29T12:33:50;99210.25;;;2.74;69.15
76940;BME280;65885;55.848;35.916;2022-12-29T12:36:30;99206.03;;;2.67;69.18
76940;BME280;65885;55.848;35.916;2022-12-29T12:39:10;99213.88;;;2.61;68.76
76940;BME280;65885;55.848;35.916;2022-12-29T12:41:48;99220.88;;;2.55;69.37
76940;BME280;65885;55.848;35.916;2022-12-29T12:44:26;99216.63;;;2.49;69.50
76940;BME280;65885;55.848;35.916;2022-12-29T12:47:16;99213.28;;;2.42;69.93
76940;BME280;65885;55.848;35.916;2022-12-29T12:55:53;99211.72;;;2.28;70.24
76940;BME280;65885;55.848;35.916;2022-12-29T12:58:29;99226.44;;;2.22;70.81
76940;BME280;65885;55.848;35.916;2022-12-29T13:01:18;99226.50;;;2.19;70.62
76940;BME280;65885;55.848;35.916;2022-12-29T13:04:05;99234.22;;;2.21;70.96
76940;BME280;65885;55.848;35.916;2022-12-29T13:06:45;99233.31;;;2.23;70.97
76940;BME280;65885;55.848;35.916;2022-12-29T13:09:29;99234.94;;;2.32;71.14
76940;BME280;65885;55.848;35.916;2022-12-29T13:12:15;99233.16;;;2.39;70.25
76940;BME280;65885;55.848;35.916;2022-12-29T13:14:57;99244.28;;;2.45;71.08
76940;BME280;65885;55.848;35.916;2022-12-29T13:17:32;99239.03;;;2.52;69.92
76940;BME280;65885;55.848;35.916;2022-12-29T13:20:16;99244.16;;;2.55;70.23
76940;BME280;65885;55.848;35.916;2022-12-29T13:22:49;99243.34;;;2.53;69.79
76940;BME280;65885;55.848;35.916;2022-12-29T13:25:32;99246.84;;;2.47;69.59
76940;BME280;65885;55.848;35.916;2022-12-29T13:28:09;99241.75;;;2.42;70.16
76940;BME280;65885;55.848;35.916;2022-12-29T13:30:45;99246.13;;;2.36;69.61
76940;BME280;65885;55.848;35.916;2022-12-29T13:33:22;99238.47;;;2.28;70.46
76940;BME280;65885;55.848;35.916;2022-12-29T13:35:56;99235.91;;;2.23;70.36
76940;BME280;65885;55.848;35.916;2022-12-29T13:38:30;99242.00;;;2.18;70.26